Time;durP1;ratioP1;P1;durP2;ratioP2;P2;SDS_P1;SDS_P2;PMS_P1;PMS_P2;Temp;Humidity;BMP_temperature;BMP_pressure;BME280_temperature;BME280_humidity;BME280_pressure;Samples;Min_cycle;Max_cycle;Signal;HPM_P1;HPM_P2
2023/12/06 07:23:16;;;;;;;;;5.67;4.67;;;;;18.62;44.70;101436.59;5986243;23;46682;-71
2023/12/06 07:25:41;;;;;;;;;3.67;3.67;;;;;19.40;44.88;101571.88;4934428;28;46560;-72
2023/12/06 07:28:06;;;;;;;;;7.00;4.00;;;;;19.52;44.77;101584.88;4938619;28;45996;-71
2023/12/06 07:30:32;;;;;;;;;4.00;4.00;;;;;19.51;44.80;101584.06;4938605;28;45467;-71
2023/12/06 07:32:57;;;;;;;;;9.00;6.00;;;;;19.52;44.68;101584.88;4939068;28;45371;-70
2023/12/06 07:35:23;;;;;;;;;3.67;3.67;;;;;19.53;44.79;101583.06;4938933;28;45307;-71
2023/12/06 07:37:48;;;;;;;;;3.33;3.33;;;;;19.52;44.77;101590.16;4953757;28;47404;-71
2023/12/06 07:40:14;;;;;;;;;5.00;5.00;;;;;19.52;44.95;101590.16;4938367;28;45341;-69
2023/12/06 07:42:39;;;;;;;;;4.50;4.50;;;;;19.48;44.61;101588.78;4938897;28;45404;-69
2023/12/06 07:45:06;;;;;;;;;6.67;5.00;;;;;19.46;44.75;101588.13;4939133;28;45552;-71
2023/12/06 07:47:31;;;;;;;;;7.00;4.00;;;;;19.55;44.82;101604.88;4935537;28;47079;-72
2023/12/06 07:49:56;;;;;;;;;5.00;4.00;;;;;19.54;44.52;101608.50;4938225;28;45326;-72
2023/12/06 07:52:22;;;;;;;;;4.00;4.00;;;;;19.45;44.53;101597.00;4938367;28;45839;-71
2023/12/06 07:54:47;;;;;;;;;5.67;5.00;;;;;19.54;44.42;101614.63;4937898;28;58388;-72
2023/12/06 07:57:13;;;;;;;;;5.75;5.25;;;;;19.53;44.33;101612.94;4938254;28;46975;-72
2023/12/06 07:59:38;;;;;;;;;5.00;5.00;;;;;19.54;44.35;101619.91;4938416;28;45397;-72
2023/12/06 08:02:04;;;;;;;;;5.00;4.00;;;;;19.54;44.38;101611.97;4938494;28;45381;-72
2023/12/06 08:04:29;;;;;;;;;4.00;4.00;;;;;19.51;44.31;101609.63;4938124;28;45276;-72
2023/12/06 08:06:55;;;;;;;;;6.00;5.75;;;;;19.50;44.42;101611.44;4938128;28;46132;-71
2023/12/06 08:09:20;;;;;;;;;4.33;3.33;;;;;19.54;44.29;101616.44;4937641;28;45294;-72
2023/12/06 08:11:46;;;;;;;;;4.33;4.33;;;;;19.49;44.14;101611.59;4938323;28;45369;-72
2023/12/06 08:14:13;;;;;;;;;4.33;3.00;;;;;19.52;44.25;101616.56;4938546;28;45381;-72
2023/12/06 08:16:38;;;;;;;;;6.00;3.33;;;;;19.40;44.25;101597.44;4938366;28;46006;-71
2023/12/06 08:19:04;;;;;;;;;4.00;4.00;;;;;19.50;44.22;101616.72;4937931;28;45460;-71
2023/12/06 08:21:29;;;;;;;;;4.75;4.75;;;;;19.50;44.32;101621.16;4938375;28;45463;-73
2023/12/06 08:23:54;;;;;;;;;4.25;2.75;;;;;19.46;44.26;101612.72;4937692;28;45355;-73
2023/12/06 08:26:20;;;;;;;;;7.75;5.25;;;;;19.42;44.37;101606.03;4938059;28;45474;-71
2023/12/06 08:28:45;;;;;;;;;6.00;4.00;;;;;19.45;44.11;101610.19;4938206;28;45482;-71
2023/12/06 08:31:10;;;;;;;;;6.00;5.25;;;;;19.49;44.00;101622.94;4937857;28;45311;-71
2023/12/06 08:33:36;;;;;;;;;5.00;5.00;;;;;19.49;44.40;101620.31;4937932;28;45466;-73
2023/12/06 08:36:01;;;;;;;;;6.00;4.67;;;;;19.47;44.28;101624.91;4937899;28;46098;-73
2023/12/06 08:38:26;;;;;;;;;6.00;6.00;;;;;19.49;44.17;101622.16;4937459;28;45671;-73
2023/12/06 08:40:52;;;;;;;;;5.75;4.50;;;;;19.49;44.08;101627.41;4938277;28;45352;-71
2023/12/06 08:43:17;;;;;;;;;8.75;6.00;;;;;19.44;43.80;101619.09;4938107;28;45414;-73
2023/12/06 08:45:42;;;;;;;;;4.00;4.00;;;;;19.50;44.10;101623.78;4937812;28;45967;-73
2023/12/06 08:48:08;;;;;;;;;4.00;3.75;;;;;19.49;44.05;101624.78;4937156;28;61391;-73
2023/12/06 08:50:34;;;;;;;;;6.00;6.00;;;;;19.44;44.10;101611.19;4937893;28;45374;-72
2023/12/06 08:52:59;;;;;;;;;5.25;5.25;;;;;19.43;44.23;101620.91;4937631;28;45426;-72
2023/12/06 08:55:25;;;;;;;;;5.75;5.00;;;;;19.49;43.94;101628.22;4937773;28;45350;-72
2023/12/06 08:57:50;;;;;;;;;9.25;6.00;;;;;19.49;43.81;101632.69;4937154;28;55993;-72
2023/12/06 09:00:16;;;;;;;;;8.00;5.00;;;;;19.49;43.95;101632.69;4937797;28;45383;-72
2023/12/06 09:02:44;;;;;;;;;5.67;5.00;;;;;19.49;44.05;101637.97;4937647;28;45302;-72
2023/12/06 09:05:13;;;;;;;;;9.33;7.67;;;;;19.35;44.05;101618.97;4937710;28;47164;-72
2023/12/06 09:07:39;;;;;;;;;2.33;0.00;;;;;19.41;43.63;101636.06;4937265;28;45347;-72
2023/12/06 09:10:05;;;;;;;;;5.00;5.00;;;;;19.39;43.90;101641.47;4937416;28;45295;-73
2023/12/06 09:12:31;;;;;;;;;6.00;6.00;;;;;19.47;43.98;101653.94;4937681;28;45542;-73
2023/12/06 09:14:56;;;;;;;;;5.67;4.00;;;;;19.48;43.69;101652.13;4937428;28;45382;-73
2023/12/06 09:17:21;;;;;;;;;7.67;5.33;;;;;19.48;43.84;101655.63;4937693;28;45290;-72
2023/12/06 09:19:48;;;;;;;;;4.67;4.67;;;;;19.48;43.83;101658.25;4937698;28;45288;-72
2023/12/06 09:22:15;;;;;;;;;6.00;6.00;;;;;19.49;43.74;101662.53;4937098;28;45409;-72
2023/12/06 09:24:42;;;;;;;;;6.00;4.67;;;;;19.50;43.93;101671.31;4937075;28;47016;-72
2023/12/06 09:27:07;;;;;;;;;5.50;5.50;;;;;19.46;43.52;101669.94;4937040;28;45363;-72
2023/12/06 09:29:33;;;;;;;;;8.00;6.00;;;;;19.47;43.92;101661.84;4937293;28;45380;-72
2023/12/06 09:31:58;;;;;;;;;5.75;5.75;;;;;19.48;43.85;101674.09;4936464;28;45302;-72
2023/12/06 09:34:24;;;;;;;;;5.67;5.67;;;;;19.47;43.74;101679.50;4936942;28;46335;-72
2023/12/06 09:36:50;;;;;;;;;7.50;7.25;;;;;19.48;43.73;101687.28;4936925;28;45366;-72
2023/12/06 09:39:15;;;;;;;;;6.00;5.00;;;;;19.47;43.69;101682.13;4937197;28;45299;-72
2023/12/06 09:41:42;;;;;;;;;10.75;7.00;;;;;19.49;43.74;101688.13;4937113;28;45316;-72
2023/12/06 09:44:07;;;;;;;;;9.33;7.33;;;;;19.40;43.63;101677.44;4937009;28;46502;-72
2023/12/06 09:46:33;;;;;;;;;5.75;5.75;;;;;19.43;43.75;101676.31;4936892;28;45450;-72
2023/12/06 09:48:59;;;;;;;;;8.00;6.25;;;;;19.45;43.65;101692.00;4936813;28;45327;-73
2023/12/06 09:51:25;;;;;;;;;7.50;4.75;;;;;19.42;43.67;101679.94;4936787;28;45369;-72
2023/12/06 09:53:51;;;;;;;;;8.25;6.00;;;;;19.47;43.62;101680.34;4936582;28;46100;-72
2023/12/06 09:56:18;;;;;;;;;8.00;6.00;;;;;19.47;44.04;101685.63;4935712;28;45664;-73
2023/12/06 09:58:43;;;;;;;;;11.00;7.75;;;;;19.46;43.63;101676.06;4937118;28;45497;-73
2023/12/06 10:01:09;;;;;;;;;7.50;7.25;;;;;19.17;43.49;101632.03;4936393;28;45296;-73
2023/12/06 10:03:35;;;;;;;;;6.00;6.00;;;;;19.42;43.45;101666.72;4936851;28;45537;-73
2023/12/06 10:06:04;;;;;;;;;9.75;6.75;;;;;19.46;43.26;101676.06;4936131;28;45374;-73
2023/12/06 10:08:34;;;;;;;;;9.25;7.25;;;;;19.47;43.64;101674.22;4936826;28;45414;-73
2023/12/06 10:11:12;;;;;;;;;9.50;7.00;;;;;19.47;43.69;101680.34;4936725;28;45385;-73
2023/12/06 10:13:40;;;;;;;;;7.25;7.00;;;;;19.45;43.32;101681.44;4936511;28;46355;-73
2023/12/06 10:16:16;;;;;;;;;9.00;7.00;;;;;19.47;43.61;101682.97;4936484;28;45301;-73
2023/12/06 10:18:42;;;;;;;;;8.00;8.00;;;;;19.47;43.40;101693.53;4936661;28;45319;-73
2023/12/06 10:21:08;;;;;;;;;8.75;7.00;;;;;19.46;43.43;101681.31;4936254;28;45354;-73
2023/12/06 10:23:34;;;;;;;;;11.33;9.33;;;;;19.46;43.38;101686.59;4936397;28;46432;-71
2023/12/06 10:26:00;;;;;;;;;10.00;7.00;;;;;19.45;43.47;101686.72;4936494;28;45363;-71
2023/12/06 10:28:26;;;;;;;;;10.75;8.50;;;;;19.46;43.31;101691.88;4936340;28;45279;-73
2023/12/06 10:31:03;;;;;;;;;6.75;6.75;;;;;19.48;43.26;101689.09;4936527;28;45462;-73
2023/12/06 10:33:30;;;;;;;;;10.00;9.00;;;;;19.47;43.30;101690.91;4935902;28;46634;-72
2023/12/06 10:35:57;;;;;;;;;8.25;7.00;;;;;19.48;43.29;101686.44;4936154;28;45345;-73
2023/12/06 10:38:24;;;;;;;;;8.00;8.00;;;;;19.48;43.42;101684.66;4936262;28;45385;-74
2023/12/06 10:40:51;;;;;;;;;7.75;7.75;;;;;19.48;43.48;101694.38;4936601;28;45346;-73
2023/12/06 10:43:18;;;;;;;;;9.25;7.00;;;;;19.47;43.18;101692.69;4936692;28;46424;-72
2023/12/06 10:45:47;;;;;;;;;8.50;8.00;;;;;19.43;43.42;101684.25;4939370;28;45362;-73
2023/12/06 10:48:15;;;;;;;;;8.00;6.25;;;;;19.49;43.28;101696.06;4939576;28;45402;-73
2023/12/06 10:50:42;;;;;;;;;8.25;8.25;;;;;19.47;43.29;101690.91;4939228;28;45426;-73
2023/12/06 10:53:13;;;;;;;;;6.75;6.75;;;;;19.43;43.34;101680.75;4939571;28;45529;-73
2023/12/06 10:55:40;;;;;;;;;10.75;9.50;;;;;19.49;43.32;101690.78;4939275;28;45283;-73
2023/12/06 10:58:07;;;;;;;;;10.50;9.00;;;;;19.48;43.28;101684.66;4939741;28;45256;-73
2023/12/06 11:00:33;;;;;;;;;8.00;6.25;;;;;19.49;43.24;101683.66;4939380;28;45371;-73
2023/12/06 11:02:59;;;;;;;;;9.00;8.00;;;;;19.48;43.28;101678.53;4938873;28;46012;-74
2023/12/06 11:05:26;;;;;;;;;8.25;8.00;;;;;19.38;43.49;101665.38;4937548;28;45457;-73
2023/12/06 11:07:54;;;;;;;;;9.00;7.75;;;;;19.48;43.55;101667.97;4939251;28;45330;-73
2023/12/06 11:10:43;;;;;;;;;8.50;7.50;;;;;19.49;43.28;101680.22;4939304;28;45353;-74
2023/12/06 11:13:35;;;;;;;;;8.50;8.50;;;;;19.38;43.34;101668.00;4939215;28;47246;-74
2023/12/06 11:16:19;;;;;;;;;10.00;9.25;;;;;19.48;43.59;101681.19;4939112;28;45274;-73
2023/12/06 11:18:47;;;;;;;;;10.00;8.75;;;;;19.47;43.25;101682.97;4938889;28;45615;-73
2023/12/06 11:21:13;;;;;;;;;9.50;7.25;;;;;19.48;43.29;101678.53;4939027;28;45299;-73
2023/12/06 11:23:40;;;;;;;;;11.25;11.25;;;;;19.35;43.31;101658.56;4938793;28;46327;-73
2023/12/06 11:26:06;;;;;;;;;7.00;7.00;;;;;19.48;43.28;101663.53;4939096;28;45426;-72
2023/12/06 11:28:40;;;;;;;;;11.00;8.25;;;;;19.48;43.27;101668.81;4938700;28;45300;-73
2023/12/06 11:31:07;;;;;;;;;10.75;10.00;;;;;19.47;43.37;101661.84;4939060;28;45399;-73
2023/12/06 11:33:33;;;;;;;;;9.75;9.75;;;;;19.49;43.34;101665.19;4938080;28;46029;-73
2023/12/06 11:35:59;;;;;;;;;7.25;7.25;;;;;19.36;43.07;101649.66;4938962;28;45301;-73
2023/12/06 11:38:42;;;;;;;;;8.50;8.00;;;;;19.50;43.30;101663.38;4939035;28;45347;-73
2023/12/06 11:41:15;;;;;;;;;10.00;8.25;;;;;19.48;43.20;101660.06;4939105;28;45387;-73
2023/12/06 11:43:48;;;;;;;;;9.75;9.75;;;;;19.50;43.43;101658.94;4938409;28;46211;-72
2023/12/06 11:46:14;;;;;;;;;11.75;8.50;;;;;19.42;43.10;101645.63;4938639;28;45407;-73
2023/12/06 11:48:41;;;;;;;;;10.00;10.00;;;;;19.51;43.33;101660.63;4938016;28;45410;-73
2023/12/06 11:51:06;;;;;;;;;9.00;9.00;;;;;19.47;43.36;101651.31;4938680;28;46613;-73
2023/12/06 11:53:35;;;;;;;;;14.00;9.75;;;;;19.51;43.40;101663.25;4938430;28;45395;-73
2023/12/06 11:56:01;;;;;;;;;9.00;9.00;;;;;19.52;43.21;101653.50;4937961;28;45433;-73
2023/12/06 11:58:30;;;;;;;;;9.50;7.75;;;;;19.51;43.24;101659.78;4938459;28;45358;-73
2023/12/06 12:00:58;;;;;;;;;11.25;9.25;;;;;19.48;43.22;101650.34;4938687;28;45590;-72
2023/12/06 12:03:24;;;;;;;;;15.00;11.25;;;;;19.52;43.35;101653.50;4937873;28;46295;-72
2023/12/06 12:05:50;;;;;;;;;10.00;7.75;;;;;19.52;43.15;101653.50;4938109;28;45506;-73
2023/12/06 12:08:16;;;;;;;;;10.75;9.75;;;;;19.40;43.29;101629.94;4938484;28;45354;-73
2023/12/06 12:10:41;;;;;;;;;10.33;9.00;;;;;19.53;43.28;101649.91;4937669;28;45288;-73
2023/12/06 12:13:18;;;;;;;;;11.25;9.00;;;;;19.38;43.10;101631.91;4938313;28;45415;-75
2023/12/06 12:15:54;;;;;;;;;8.75;8.00;;;;;19.53;43.38;101655.19;4933398;28;45506;-73
2023/12/06 12:18:20;;;;;;;;;11.75;8.00;;;;;19.50;43.38;101650.19;4922867;28;45323;-74
2023/12/06 12:20:46;;;;;;;;;8.50;8.00;;;;;19.53;43.54;101652.53;4936762;28;45271;-73
2023/12/06 12:23:12;;;;;;;;;10.00;8.75;;;;;19.54;43.49;101646.31;4937806;28;45346;-73
2023/12/06 12:25:48;;;;;;;;;15.75;11.25;;;;;19.54;43.22;101643.66;4937511;28;45366;-73
2023/12/06 12:28:17;;;;;;;;;9.00;9.00;;;;;19.51;43.21;101638.66;4928966;28;45447;-73
2023/12/06 12:30:44;;;;;;;;;8.75;8.25;;;;;19.56;43.49;101646.97;4937242;28;45592;-73
2023/12/06 12:33:11;;;;;;;;;9.50;9.50;;;;;19.52;43.35;101640.31;4937346;28;45557;-75
2023/12/06 12:35:37;;;;;;;;;9.50;9.50;;;;;19.56;43.46;101635.59;4936924;28;45485;-73
2023/12/06 12:38:03;;;;;;;;;11.00;9.00;;;;;19.56;43.88;101639.06;4937757;28;45462;-73
2023/12/06 12:40:29;;;;;;;;;12.00;10.00;;;;;19.57;43.15;101643.34;4937578;28;45349;-73
2023/12/06 12:42:55;;;;;;;;;11.50;10.75;;;;;19.56;43.50;101630.31;4931011;28;45350;-73
2023/12/06 12:45:21;;;;;;;;;10.00;8.00;;;;;19.54;43.02;101622.53;4924629;28;45319;-73
2023/12/06 12:47:46;;;;;;;;;11.75;9.75;;;;;19.53;43.35;101627.94;4936936;28;45304;-73
2023/12/06 12:50:18;;;;;;;;;12.50;9.50;;;;;19.60;43.50;101634.31;4929709;28;45312;-73
2023/12/06 12:52:44;;;;;;;;;12.75;12.00;;;;;19.60;43.78;101621.94;4936965;28;47051;-74
2023/12/06 12:55:09;;;;;;;;;11.00;10.75;;;;;19.60;43.43;101621.13;4936970;28;45826;-75
2023/12/06 12:57:42;;;;;;;;;11.50;11.50;;;;;19.58;43.43;101626.53;4943391;28;45598;-76
2023/12/06 13:00:19;;;;;;;;;7.00;6.25;;;;;19.60;43.51;101623.75;4948186;28;45287;-75
2023/12/06 13:02:44;;;;;;;;;11.75;11.25;;;;;19.60;43.51;101629.88;4936953;28;47202;-75
2023/12/06 13:05:10;;;;;;;;;12.00;9.25;;;;;19.60;43.55;101629.03;4937305;28;45498;-75
2023/12/06 13:07:35;;;;;;;;;10.50;10.00;;;;;19.52;43.47;101621.84;4936513;28;45300;-75
2023/12/06 13:10:05;;;;;;;;;10.75;10.25;;;;;19.54;43.57;101627.00;4937665;28;45465;-75
2023/12/06 13:12:30;;;;;;;;;12.50;10.50;;;;;19.60;43.33;101635.16;4937492;28;46440;-74
2023/12/06 13:14:55;;;;;;;;;8.75;8.75;;;;;19.58;43.43;101631.81;4936841;28;56065;-75
2023/12/06 13:17:20;;;;;;;;;10.00;9.25;;;;;19.58;43.19;101623.91;4936938;28;59299;-75
2023/12/06 13:19:46;;;;;;;;;12.75;10.00;;;;;19.59;43.39;101625.59;4937432;28;45481;-74
2023/12/06 13:22:11;;;;;;;;;11.50;9.50;;;;;19.54;43.67;101622.53;4937090;28;45981;-75
2023/12/06 13:24:36;;;;;;;;;12.25;9.75;;;;;19.60;43.46;101629.03;4936976;28;45409;-74
2023/12/06 13:27:02;;;;;;;;;11.00;10.00;;;;;19.56;43.40;101625.03;4936808;28;50592;-75
2023/12/06 13:29:28;;;;;;;;;8.67;8.67;;;;;19.50;43.40;101615.88;4927213;28;45462;-75
2023/12/06 13:31:53;;;;;;;;;9.75;7.75;;;;;19.58;43.46;101617.78;4918068;28;46251;-75
2023/12/06 13:34:19;;;;;;;;;9.00;9.00;;;;;19.58;43.51;101616.00;4917236;28;64557;-75
2023/12/06 13:36:44;;;;;;;;;11.00;10.50;;;;;19.58;43.35;101613.34;4918286;28;45371;-75
2023/12/06 13:39:11;;;;;;;;;14.25;9.00;;;;;19.58;43.41;101620.44;4917991;28;45271;-75
2023/12/06 13:41:36;;;;;;;;;12.25;9.00;;;;;19.57;43.46;101609.03;4928707;28;47248;-75
2023/12/06 13:44:02;;;;;;;;;8.75;8.75;;;;;19.54;43.45;101606.72;4936510;28;45295;-74
2023/12/06 13:46:28;;;;;;;;;12.50;11.75;;;;;19.49;43.41;101603.66;4937061;28;45438;-75
2023/12/06 13:48:53;;;;;;;;;11.25;10.25;;;;;19.57;43.15;101616.94;4937381;28;45312;-74
2023/12/06 13:51:18;;;;;;;;;14.50;10.50;;;;;19.57;43.28;101616.94;4936924;28;46171;-74
2023/12/06 13:53:44;;;;;;;;;14.00;10.50;;;;;19.53;43.24;101607.66;4936999;28;45403;-75
2023/12/06 13:56:09;;;;;;;;;11.50;9.50;;;;;19.54;43.27;101613.78;4936576;28;57237;-75
2023/12/06 13:58:35;;;;;;;;;9.00;9.00;;;;;19.51;43.26;101613.09;4936184;28;45497;-75
2023/12/06 14:01:01;;;;;;;;;13.00;9.00;;;;;19.53;43.14;101612.09;4936703;28;47091;-75
2023/12/06 14:03:27;;;;;;;;;14.50;11.25;;;;;19.23;43.22;101562.91;4936864;28;45371;-75
2023/12/06 14:05:52;;;;;;;;;10.75;10.75;;;;;19.43;43.51;101602.44;4937105;28;45398;-75
2023/12/06 14:08:18;;;;;;;;;7.50;3.75;;;;;19.56;43.31;101620.59;4937180;28;45418;-75
2023/12/06 14:10:43;;;;;;;;;11.00;10.25;;;;;19.57;43.05;101624.06;4936326;28;46095;-75
2023/12/06 14:13:09;;;;;;;;;10.00;9.00;;;;;19.57;43.22;101621.41;4936224;28;47859;-75
2023/12/06 14:15:34;;;;;;;;;9.25;8.75;;;;;19.54;43.31;101619.91;4936833;28;45409;-75
2023/12/06 14:17:59;;;;;;;;;8.75;8.00;;;;;19.56;43.23;101619.75;4937984;28;52581;-74
2023/12/06 14:20:24;;;;;;;;;12.50;9.25;;;;;19.54;43.49;101613.78;4939938;28;46416;-75
2023/12/06 14:22:50;;;;;;;;;10.25;8.25;;;;;19.53;43.28;101612.09;4939692;28;54278;-74
2023/12/06 14:25:15;;;;;;;;;11.00;8.50;;;;;19.54;43.16;101613.78;4939537;28;51451;-74
2023/12/06 14:27:41;;;;;;;;;14.00;9.00;;;;;19.49;43.42;101601.03;4939756;28;45362;-75
2023/12/06 14:30:08;;;;;;;;;15.25;12.00;;;;;19.55;43.18;101615.44;4939659;28;46378;-75
2023/12/06 14:32:33;;;;;;;;;10.25;9.25;;;;;19.56;43.22;101614.47;4939789;28;45374;-74
2023/12/06 14:34:58;;;;;;;;;13.75;10.75;;;;;19.54;43.71;101617.25;4954856;28;45675;-74
2023/12/06 14:37:24;;;;;;;;;9.75;9.50;;;;;19.53;43.25;101623.50;4940082;28;45362;-75
2023/12/06 14:39:50;;;;;;;;;9.25;9.00;;;;;19.48;43.14;101625.75;4939689;28;46319;-74
2023/12/06 14:42:16;;;;;;;;;13.25;10.75;;;;;19.42;43.30;101624.50;4939354;28;45255;-74
2023/12/06 14:44:43;;;;;;;;;12.00;11.50;;;;;19.54;43.19;101637.53;4939751;28;45393;-74
2023/12/06 14:47:09;;;;;;;;;12.50;10.50;;;;;19.52;43.26;101645.59;4939730;28;45386;-75
2023/12/06 14:49:35;;;;;;;;;13.25;10.50;;;;;19.53;43.03;101638.50;4939591;28;45292;-74
2023/12/06 14:52:03;;;;;;;;;10.67;10.67;;;;;19.52;43.21;101637.66;4939706;28;45288;-75
2023/12/06 14:54:29;;;;;;;;;12.75;11.25;;;;;19.53;43.33;101639.34;4939731;28;45397;-74
2023/12/06 14:56:55;;;;;;;;;12.50;11.00;;;;;19.53;43.44;101630.59;4939255;28;45374;-75
2023/12/06 14:59:21;;;;;;;;;9.75;8.25;;;;;19.46;43.26;101617.97;4939072;28;46186;-75
2023/12/06 15:01:51;;;;;;;;;11.75;9.50;;;;;19.49;43.44;101617.69;4939228;28;45438;-76
2023/12/06 15:04:16;;;;;;;;;9.25;8.00;;;;;19.46;43.46;101612.72;4939612;28;45331;-73
2023/12/06 15:06:41;;;;;;;;;13.75;11.25;;;;;19.52;43.31;101627.13;4939343;28;45379;-74
2023/12/06 15:09:07;;;;;;;;;10.25;10.00;;;;;19.53;43.33;101623.50;4939023;28;46244;-75
2023/12/06 15:11:33;;;;;;;;;9.50;9.50;;;;;19.53;43.32;101623.50;4939008;28;45448;-75
2023/12/06 15:13:58;;;;;;;;;14.50;10.50;;;;;19.51;43.27;101626.31;4939105;28;46842;-75
2023/12/06 15:16:23;;;;;;;;;11.75;11.25;;;;;19.51;43.24;101623.66;4938972;28;56477;-74
2023/12/06 15:18:49;;;;;;;;;11.00;9.00;;;;;19.53;43.27;101622.66;4939266;28;46100;-74
2023/12/06 15:21:14;;;;;;;;;11.25;9.75;;;;;19.27;43.18;101585.41;4939073;28;45399;-74
2023/12/06 15:23:39;;;;;;;;;11.00;10.00;;;;;19.53;43.50;101620.03;4937948;28;45384;-74
2023/12/06 15:26:05;;;;;;;;;14.75;10.00;;;;;19.49;43.27;101619.50;4938876;28;45235;-74
2023/12/06 15:28:30;;;;;;;;;9.75;9.25;;;;;19.43;43.47;101609.50;4938152;28;47301;-72
2023/12/06 15:30:55;;;;;;;;;14.75;11.25;;;;;19.48;43.34;101626.59;4938393;28;45311;-75
2023/12/06 15:33:21;;;;;;;;;14.00;10.25;;;;;19.49;43.49;101625.59;4938918;28;45394;-73
2023/12/06 15:35:46;;;;;;;;;14.50;10.00;;;;;19.53;43.55;101636.72;4938973;28;45572;-75
2023/12/06 15:38:12;;;;;;;;;12.75;10.00;;;;;19.49;43.36;101633.50;4938915;28;46353;-76
2023/12/06 15:40:37;;;;;;;;;10.75;10.25;;;;;19.53;43.48;101633.22;4938490;28;45371;-74
2023/12/06 15:43:03;;;;;;;;;12.75;9.75;;;;;19.48;43.46;101623.94;4938779;28;45296;-74
2023/12/06 15:45:32;;;;;;;;;10.67;8.00;;;;;19.48;43.36;101629.22;4939049;28;45659;-72
2023/12/06 15:47:59;;;;;;;;;8.50;7.75;;;;;19.51;43.35;101636.03;4938780;28;47065;-72
2023/12/06 15:50:24;;;;;;;;;12.00;10.50;;;;;19.47;43.27;101616.16;4938523;28;45346;-73
2023/12/06 15:52:50;;;;;;;;;12.50;11.00;;;;;19.45;43.19;101613.66;4938824;28;45453;-74
2023/12/06 15:55:15;;;;;;;;;10.00;8.25;;;;;19.46;43.41;101622.44;4938426;28;45298;-75
2023/12/06 15:57:40;;;;;;;;;11.25;9.00;;;;;19.51;43.42;101636.03;4938357;28;46806;-76
2023/12/06 16:00:06;;;;;;;;;13.75;10.00;;;;;19.50;43.25;101635.19;4938726;28;50695;-75
2023/12/06 16:02:32;;;;;;;;;14.25;8.50;;;;;19.27;43.20;101592.47;4938702;28;45379;-76
2023/12/06 16:04:57;;;;;;;;;9.75;8.75;;;;;19.40;43.42;101615.91;4938743;28;45363;-75
2023/12/06 16:07:23;;;;;;;;;8.00;8.00;;;;;19.50;43.02;101637.00;4938456;28;45354;-73
2023/12/06 16:09:48;;;;;;;;;10.50;10.50;;;;;19.47;43.37;101627.53;4938263;28;45384;-75
2023/12/06 16:12:13;;;;;;;;;8.00;8.00;;;;;19.46;43.52;101630.34;4938688;28;45513;-75
2023/12/06 16:14:39;;;;;;;;;9.00;9.00;;;;;19.50;43.77;101626.44;4938747;28;45331;-75
2023/12/06 16:17:04;;;;;;;;;12.25;9.75;;;;;19.46;43.61;101625.06;4938398;28;45510;-75
2023/12/06 16:19:30;;;;;;;;;9.75;8.00;;;;;19.46;43.54;101625.06;4938491;28;45370;-75
2023/12/06 16:21:55;;;;;;;;;10.50;8.25;;;;;19.48;43.37;101639.78;4937421;28;45414;-75
2023/12/06 16:24:21;;;;;;;;;8.50;8.00;;;;;19.43;43.25;101631.47;4938149;28;45405;-73
2023/12/06 16:26:46;;;;;;;;;9.00;9.00;;;;;19.52;43.50;101632.38;4938367;28;45468;-73
2023/12/06 16:29:12;;;;;;;;;8.00;8.00;;;;;19.54;43.47;101645.47;4936913;28;45434;-75
2023/12/06 16:31:37;;;;;;;;;11.50;11.25;;;;;19.53;43.41;101638.50;4938446;28;45430;-75
2023/12/06 16:34:02;;;;;;;;;12.25;10.00;;;;;19.48;43.51;101638.94;4938226;28;45510;-75
2023/12/06 16:36:28;;;;;;;;;12.00;8.75;;;;;19.47;43.31;101629.34;4936809;28;47073;-75
2023/12/06 16:38:54;;;;;;;;;12.25;9.25;;;;;19.53;43.34;101643.78;4938995;28;45414;-75
2023/12/06 16:41:19;;;;;;;;;13.50;8.50;;;;;19.47;43.21;101634.63;4939146;28;45435;-73
2023/12/06 16:43:45;;;;;;;;;10.00;9.00;;;;;19.48;43.25;101637.13;4937809;28;45375;-73
2023/12/06 16:46:12;;;;;;;;;10.25;8.50;;;;;19.52;43.32;101648.22;4938043;28;46130;-72
2023/12/06 16:48:38;;;;;;;;;11.00;9.50;;;;;19.53;43.32;101651.69;4938622;28;45367;-75
2023/12/06 16:51:04;;;;;;;;;11.50;10.50;;;;;19.53;43.34;101665.75;4937561;28;45423;-76
2023/12/06 16:53:29;;;;;;;;;9.50;9.00;;;;;19.48;43.37;101660.06;4937558;28;45263;-75
2023/12/06 16:55:55;;;;;;;;;9.25;9.25;;;;;19.52;43.04;101669.34;4936668;28;45813;-75
2023/12/06 16:58:20;;;;;;;;;11.50;10.75;;;;;19.48;43.12;101660.06;4938028;28;45323;-75
2023/12/06 17:00:45;;;;;;;;;11.75;10.00;;;;;19.51;43.19;101665.06;4938085;28;45302;-71
2023/12/06 17:03:10;;;;;;;;;10.25;8.25;;;;;19.51;43.19;101659.78;4937943;28;45335;-74
2023/12/06 17:05:36;;;;;;;;;10.25;9.00;;;;;19.50;43.10;101666.84;4937596;28;45351;-73
2023/12/06 17:08:01;;;;;;;;;10.25;9.50;;;;;19.50;43.20;101666.03;4936502;28;45317;-73
2023/12/06 17:10:27;;;;;;;;;13.75;9.25;;;;;19.50;42.99;101663.38;4937711;28;45456;-71
2023/12/06 17:12:53;;;;;;;;;11.00;9.00;;;;;19.51;43.11;101670.34;4936307;28;51666;-72
2023/12/06 17:15:18;;;;;;;;;9.75;9.75;;;;;19.49;43.14;101665.19;4937416;28;52472;-71
2023/12/06 17:17:43;;;;;;;;;11.50;11.50;;;;;19.50;43.03;101663.38;4937391;28;52296;-73
2023/12/06 17:20:09;;;;;;;;;13.50;7.50;;;;;19.50;43.03;101656.31;4937516;28;45340;-71
2023/12/06 17:22:35;;;;;;;;;11.75;11.75;;;;;19.45;43.20;101652.41;4937594;28;45378;-74
2023/12/06 17:25:00;;;;;;;;;8.50;8.50;;;;;19.50;42.85;101658.94;4937135;28;45303;-76
2023/12/06 17:27:25;;;;;;;;;9.00;9.00;;;;;19.49;43.05;101654.63;4937538;28;45340;-74
2023/12/06 17:29:51;;;;;;;;;10.75;9.00;;;;;19.38;43.04;101629.25;4952044;28;45565;-76
2023/12/06 17:32:16;;;;;;;;;12.50;11.25;;;;;19.42;42.57;101637.69;4937247;28;45545;-72
2023/12/06 17:34:41;;;;;;;;;9.75;9.75;;;;;19.48;42.46;101649.50;4936846;28;47110;-73
2023/12/06 17:37:08;;;;;;;;;10.75;9.50;;;;;19.48;42.90;101660.91;4930263;28;45652;-71
2023/12/06 17:39:33;;;;;;;;;11.25;9.75;;;;;19.46;43.46;101654.94;4920604;28;45339;-72
2023/12/06 17:41:58;;;;;;;;;10.50;10.50;;;;;19.40;43.31;101640.50;4931559;28;45454;-72
2023/12/06 17:44:23;;;;;;;;;8.00;8.00;;;;;19.51;43.44;101657.13;4937088;28;46281;-73
2023/12/06 17:46:49;;;;;;;;;10.00;10.00;;;;;19.51;43.47;101657.97;4937265;28;49527;-71
2023/12/06 17:49:14;;;;;;;;;10.25;7.75;;;;;19.47;43.38;101656.59;4937064;28;45459;-73
2023/12/06 17:51:40;;;;;;;;;11.25;9.75;;;;;19.54;43.75;101667.41;4937143;28;45279;-73
2023/12/06 17:54:05;;;;;;;;;11.25;9.50;;;;;19.53;43.50;101668.38;4940159;28;46139;-73
2023/12/06 17:56:31;;;;;;;;;9.00;8.25;;;;;19.56;43.69;101672.53;4940556;28;45412;-71
2023/12/06 17:58:56;;;;;;;;;10.00;8.00;;;;;19.49;43.46;101673.09;4940734;28;45316;-75
2023/12/06 18:01:24;;;;;;;;;10.67;9.00;;;;;19.57;43.75;101682.13;4940581;28;45618;-69
2023/12/06 20:18:35;;;;;;;;;14.50;11.00;;;;;19.41;42.60;101736.34;4913760;28;45518;-67
2023/12/06 20:21:00;;;;;;;;;10.50;10.50;;;;;19.43;42.76;101728.28;4913968;28;45445;-68
2023/12/06 20:23:26;;;;;;;;;9.75;9.75;;;;;19.43;42.84;101731.75;4917974;28;45544;-68
2023/12/06 20:25:51;;;;;;;;;10.00;9.75;;;;;19.44;42.80;101728.13;4918347;28;45399;-67
2023/12/06 20:28:17;;;;;;;;;10.00;7.50;;;;;19.45;42.80;101727.16;4912679;28;53684;-67
2023/12/06 20:30:42;;;;;;;;;11.00;10.25;;;;;19.46;42.82;101738.56;4906975;28;45422;-69
2023/12/06 20:33:07;;;;;;;;;13.00;11.25;;;;;19.46;43.02;101728.84;4904328;28;47217;-68
2023/12/06 20:35:33;;;;;;;;;11.00;10.00;;;;;19.47;42.81;101729.66;4906380;28;45447;-67
2023/12/06 20:37:58;;;;;;;;;10.00;10.00;;;;;19.37;42.87;101717.31;4900219;28;45317;-69
2023/12/06 20:40:23;;;;;;;;;10.25;10.25;;;;;19.47;42.94;101734.91;4909923;28;58153;-69
2023/12/06 20:42:49;;;;;;;;;10.00;9.75;;;;;19.45;42.82;101729.78;4905413;28;45980;-67
2023/12/06 20:45:14;;;;;;;;;12.00;11.00;;;;;19.49;42.25;101733.81;4918510;28;45482;-67
2023/12/06 20:47:40;;;;;;;;;9.25;8.50;;;;;19.43;42.62;101729.13;4932958;28;45379;-67
2023/12/06 20:50:06;;;;;;;;;9.25;7.75;;;;;19.53;42.75;101738.81;4917733;28;45328;-68
2023/12/06 20:52:31;;;;;;;;;12.00;10.00;;;;;19.52;42.85;101737.97;4918213;28;47045;-67